Time;durP1;ratioP1;P1;durP2;ratioP2;P2;SDS_P1;SDS_P2;PMS_P1;PMS_P2;Temp;Humidity;BMP_temperature;BMP_pressure;BME280_temperature;BME280_humidity;BME280_pressure;Samples;Min_cycle;Max_cycle;Signal;HPM_P1;HPM_P2
2022/01/03 00:01:23;;;;;;;2.75;1.00;;;;;;;14.62;69.60;100294.00;5008998;28;20533;-64
2022/01/03 00:03:49;;;;;;;3.03;0.80;;;;;;;14.73;68.68;100306.94;5011421;28;20036;-64
2022/01/03 00:06:15;;;;;;;4.07;1.20;;;;;;;14.85;68.95;100317.06;5012970;28;20494;-64
2022/01/03 00:08:43;;;;;;;3.22;0.90;;;;;;;14.81;69.30;100326.19;5013185;28;20461;-64
2022/01/03 00:11:12;;;;;;;8.93;1.33;;;;;;;14.87;69.33;100325.91;5012954;28;20140;-64
2022/01/03 00:13:46;;;;;;;1.75;0.95;;;;;;;14.91;69.42;100338.25;5011895;28;20553;-64
2022/01/03 00:16:12;;;;;;;2.45;1.13;;;;;;;15.00;67.58;100343.16;5013252;28;20030;-64
2022/01/03 00:18:39;;;;;;;4.28;1.20;;;;;;;15.07;68.00;100334.81;4998914;28;20061;-64
2022/01/03 00:21:12;;;;;;;3.60;1.00;;;;;;;14.97;68.20;100321.88;4993074;28;20461;-64
2022/01/03 00:23:40;;;;;;;2.88;1.00;;;;;;;14.97;68.87;100322.75;4993603;28;20034;-64
2022/01/03 00:26:08;;;;;;;2.45;0.85;;;;;;;14.98;68.06;100318.25;4993996;28;20062;-64
2022/01/03 00:28:46;;;;;;;4.05;1.00;;;;;;;14.96;68.43;100310.28;4993079;28;20105;-64
2022/01/03 00:31:13;;;;;;;2.08;1.13;;;;;;;14.94;67.25;100306.81;5001828;28;20022;-63
2022/01/03 00:33:40;;;;;;;2.75;0.93;;;;;;;15.03;67.19;100302.84;5012389;28;20067;-63
2022/01/03 00:36:06;;;;;;;1.08;0.70;;;;;;;15.07;67.05;100318.72;5013054;28;20034;-63
2022/01/03 00:38:34;;;;;;;3.28;1.20;;;;;;;14.98;67.81;100316.47;5012297;28;20072;-63
2022/01/03 00:41:09;;;;;;;3.85;1.13;;;;;;;14.94;67.61;100296.09;5012608;28;20033;-63
2022/01/03 00:43:34;;;;;;;2.35;1.02;;;;;;;14.98;66.71;100296.81;4995951;28;20030;-63
2022/01/03 00:46:00;;;;;;;5.05;1.00;;;;;;;15.01;66.84;100307.41;4993171;28;20482;-63
2022/01/03 00:48:25;;;;;;;4.50;1.00;;;;;;;15.00;67.95;100321.75;4992553;28;20049;-63
2022/01/03 00:50:51;;;;;;;3.25;0.88;;;;;;;14.88;67.99;100316.94;4992873;28;20034;-64
2022/01/03 00:53:17;;;;;;;4.32;1.40;;;;;;;14.99;68.37;100320.84;4992625;28;20034;-64
2022/01/03 00:56:03;;;;;;;6.90;1.30;;;;;;;14.97;67.50;100317.41;4993093;28;20105;-64
2022/01/03 00:59:07;;;;;;;6.82;1.58;;;;;;;14.94;67.67;100317.53;4992315;28;20382;-64
2022/01/03 01:01:36;;;;;;;4.07;0.80;;;;;;;14.92;68.50;100316.75;4993098;28;20029;-64
2022/01/03 01:04:06;;;;;;;4.25;1.50;;;;;;;14.87;69.45;100313.41;4993179;28;20045;-64
2022/01/03 01:06:35;;;;;;;8.50;1.48;;;;;;;14.85;68.76;100311.72;4992182;28;20050;-64
2022/01/03 01:09:04;;;;;;;3.67;1.02;;;;;;;14.81;68.97;100312.81;4992035;28;20030;-64
2022/01/03 01:11:30;;;;;;;4.10;1.00;;;;;;;14.73;68.65;100302.44;4992785;28;20375;-64
2022/01/03 01:13:56;;;;;;;3.30;0.90;;;;;;;14.83;67.71;100322.50;4991400;28;20030;-63
2022/01/03 01:16:23;;;;;;;3.13;0.75;;;;;;;14.92;68.05;100321.22;4991986;28;20062;-63
2022/01/03 01:18:49;;;;;;;2.90;1.50;;;;;;;14.86;68.00;100314.31;4994785;28;20490;-63
2022/01/03 01:21:15;;;;;;;2.15;1.10;;;;;;;14.88;68.72;100323.16;4992825;28;20038;-63
2022/01/03 01:23:42;;;;;;;4.82;1.08;;;;;;;14.87;68.64;100321.44;4992012;28;20068;-64
2022/01/03 01:28:53;;;;;;;7.05;0.98;;;;;;;14.97;67.65;100336.16;5011560;28;20121;-64
2022/01/03 01:31:21;;;;;;;4.95;0.90;;;;;;;14.88;67.81;100331.19;5012081;28;20036;-63
2022/01/03 01:33:52;;;;;;;3.35;1.00;;;;;;;14.87;67.09;100325.91;4992975;28;20021;-63
2022/01/03 01:36:20;;;;;;;2.70;1.05;;;;;;;14.85;68.21;100325.09;5012027;28;20112;-63
2022/01/03 01:38:50;;;;;;;5.20;0.82;;;;;;;14.79;68.88;100323.59;5011195;28;20438;-64
2022/01/03 01:41:18;;;;;;;2.55;0.88;;;;;;;14.86;68.72;100332.22;5011466;28;20033;-64
2022/01/03 01:43:46;;;;;;;5.28;1.58;;;;;;;14.84;68.33;100336.78;5005888;28;20022;-64
2022/01/03 01:46:15;;;;;;;3.45;0.95;;;;;;;14.77;69.44;100328.16;4991685;28;20030;-64
2022/01/03 01:48:46;;;;;;;3.97;0.80;;;;;;;14.72;69.54;100327.47;4991155;28;20423;-64
2022/01/03 01:51:14;;;;;;;3.47;1.00;;;;;;;14.89;69.14;100346.31;5000339;28;20040;-64
2022/01/03 01:53:48;;;;;;;5.70;1.00;;;;;;;14.89;67.95;100330.25;5011134;28;20492;-64
2022/01/03 01:56:23;;;;;;;;;;;;;;;14.83;68.42;100335.88;5011520;28;20049;-64
2022/01/03 01:59:09;;;;;;;4.00;0.88;;;;;;;14.83;67.16;100333.22;5010500;28;19909;-64
2022/01/03 02:02:11;;;;;;;2.42;0.90;;;;;;;14.86;68.75;100335.75;5012189;28;20022;-64
2022/01/03 02:04:48;;;;;;;1.13;0.82;;;;;;;14.75;68.43;100338.03;4990327;28;20049;-64
2022/01/03 02:07:13;;;;;;;4.47;1.00;;;;;;;14.78;67.97;100343.25;5010185;28;20037;-64
2022/01/03 02:09:48;;;;;;;2.85;1.23;;;;;;;14.76;69.51;100350.47;5011109;28;20389;-64
2022/01/03 02:12:16;;;;;;;4.00;0.90;;;;;;;14.81;68.90;100353.84;5009963;28;20030;-64
2022/01/03 02:14:43;;;;;;;3.80;1.08;;;;;;;14.77;68.57;100352.25;5011422;28;20045;-64
2022/01/03 02:17:09;;;;;;;2.70;0.90;;;;;;;14.74;68.90;100347.03;5008608;28;20030;-64
2022/01/03 02:19:36;;;;;;;3.08;1.40;;;;;;;14.77;69.05;100333.50;4991578;28;20188;-64
2022/01/03 02:22:02;;;;;;;3.30;1.00;;;;;;;14.75;68.39;100343.41;4991505;28;20471;-64
2022/01/03 02:24:28;;;;;;;1.80;0.85;;;;;;;14.71;68.99;100336.44;4991057;28;20049;-64
2022/01/03 02:26:54;;;;;;;7.47;1.40;;;;;;;14.64;69.20;100318.91;4990916;28;20061;-64
2022/01/03 02:29:20;;;;;;;6.15;0.90;;;;;;;14.66;69.56;100330.44;4991915;28;20029;-64
2022/01/03 02:31:45;;;;;;;3.78;0.80;;;;;;;14.85;67.52;100344.75;5009679;28;20045;-64
2022/01/03 02:34:10;;;;;;;4.38;1.42;;;;;;;15.07;67.64;100337.47;5010477;28;20033;-64
2022/01/03 02:36:36;;;;;;;8.07;1.27;;;;;;;14.93;67.76;100337.22;5010823;28;20038;-64
2022/01/03 02:39:03;;;;;;;4.90;1.10;;;;;;;14.88;67.46;100328.53;5010782;28;20036;-64
2022/01/03 02:41:29;;;;;;;3.08;0.93;;;;;;;14.85;67.59;100339.38;5010425;28;20533;-64
2022/01/03 02:43:54;;;;;;;3.85;1.15;;;;;;;14.82;67.57;100339.53;5009751;28;20105;-64
2022/01/03 02:46:20;;;;;;;2.13;1.30;;;;;;;14.92;67.69;100351.56;5010795;28;20025;-64
2022/01/03 02:48:45;;;;;;;6.78;1.02;;;;;;;14.96;66.95;100345.13;5009749;28;20080;-64
2022/01/03 02:51:12;;;;;;;2.28;0.93;;;;;;;14.71;68.78;100347.13;4993076;28;20367;-64
2022/01/03 02:53:38;;;;;;;3.85;1.40;;;;;;;14.89;67.52;100349.00;5009977;28;20068;-64
2022/01/03 02:56:03;;;;;;;6.05;1.73;;;;;;;14.83;67.63;100351.09;5010499;28;20088;-64
2022/01/03 02:58:29;;;;;;;1.33;0.80;;;;;;;14.83;67.16;100346.59;5009931;28;20026;-64
2022/01/03 03:00:54;;;;;;;4.53;1.13;;;;;;;14.86;67.65;100340.25;5007969;28;20026;-64
2022/01/03 03:03:21;;;;;;;3.42;1.13;;;;;;;14.95;67.36;100335.34;5008827;28;20022;-64
2022/01/03 03:05:47;;;;;;;5.25;1.40;;;;;;;14.82;68.50;100318.09;5009669;28;20053;-64
2022/01/03 03:08:14;;;;;;;7.07;1.30;;;;;;;14.84;68.75;100326.94;5005846;28;20045;-64
2022/01/03 03:10:40;;;;;;;6.10;1.42;;;;;;;14.81;68.06;100334.25;5010550;28;20029;-64
2022/01/03 03:13:06;;;;;;;4.18;1.10;;;;;;;14.75;68.70;100347.88;5010059;28;20390;-64
2022/01/03 03:15:34;;;;;;;1.75;1.00;;;;;;;14.76;68.33;100339.78;5010125;28;20033;-64
2022/01/03 03:18:00;;;;;;;4.72;0.90;;;;;;;14.70;68.41;100332.03;5000884;28;20069;-64
2022/01/03 03:20:28;;;;;;;2.72;1.10;;;;;;;14.80;67.66;100337.84;4990055;28;20100;-64
2022/01/03 03:22:54;;;;;;;4.25;1.73;;;;;;;14.77;67.15;100336.19;4990238;28;20411;-64
2022/01/03 03:25:25;;;;;;;3.28;1.00;;;;;;;14.77;68.47;100337.97;5008499;28;20026;-64
2022/01/03 03:27:53;;;;;;;4.70;1.30;;;;;;;14.76;68.96;100339.78;5009467;28;20029;-64
2022/01/03 03:30:25;;;;;;;3.35;1.08;;;;;;;14.67;68.52;100334.84;5010210;28;20493;-64
2022/01/03 03:32:56;;;;;;;6.43;1.20;;;;;;;14.70;68.31;100334.69;5008740;28;20132;-64
2022/01/03 03:35:23;;;;;;;4.40;1.30;;;;;;;14.66;68.33;100335.78;5009440;28;20036;-64
2022/01/03 03:37:48;;;;;;;6.55;1.48;;;;;;;14.70;68.35;100324.00;5010979;28;20109;-64
2022/01/03 03:40:14;;;;;;;6.47;1.23;;;;;;;14.59;67.76;100325.41;5016035;28;20101;-64
2022/01/03 03:42:41;;;;;;;4.03;1.20;;;;;;;14.64;68.50;100323.41;5016144;28;20017;-64
2022/01/03 03:45:07;;;;;;;3.40;0.88;;;;;;;14.64;68.69;100334.97;5015708;28;20481;-64
2022/01/03 03:47:33;;;;;;;4.30;1.23;;;;;;;14.60;68.93;100322.66;5016395;28;20065;-64
2022/01/03 03:49:59;;;;;;;3.65;1.02;;;;;;;14.54;67.87;100317.59;5016492;28;20026;-64
2022/01/03 03:52:24;;;;;;;5.63;1.20;;;;;;;14.65;67.77;100336.72;5014950;28;20034;-64
2022/01/03 03:54:50;;;;;;;3.63;0.80;;;;;;;14.65;68.43;100331.34;4997893;28;20730;-64
2022/01/03 03:57:15;;;;;;;2.50;0.85;;;;;;;14.63;67.60;100332.38;5012472;28;20095;-64
2022/01/03 03:59:41;;;;;;;1.23;0.80;;;;;;;14.66;67.74;100334.91;5016374;28;20030;-64
2022/01/03 04:02:07;;;;;;;8.18;1.23;;;;;;;14.65;67.55;100326.00;5016266;28;20029;-64
2022/01/03 04:04:32;;;;;;;2.83;1.17;;;;;;;14.63;68.05;100319.00;5016750;28;20029;-64
2022/01/03 04:06:58;;;;;;;4.70;1.00;;;;;;;14.32;68.81;100322.13;5015631;28;20041;-64
2022/01/03 04:09:23;;;;;;;7.00;1.20;;;;;;;14.49;69.39;100309.75;5015603;28;20112;-64
2022/01/03 04:11:50;;;;;;;6.60;1.67;;;;;;;14.53;69.30;100321.19;5016278;28;20040;-64
2022/01/03 04:14:15;;;;;;;2.60;0.80;;;;;;;14.49;68.83;100311.56;5015634;28;20109;-64
2022/01/03 04:16:42;;;;;;;6.15;1.40;;;;;;;14.33;70.16;100313.16;5015780;28;20058;-64
2022/01/03 04:19:07;;;;;;;7.18;1.17;;;;;;;14.07;71.17;100311.56;4997784;28;20034;-64
2022/01/03 04:21:33;;;;;;;6.60;1.05;;;;;;;14.32;70.23;100317.63;5012159;28;20033;-64
2022/01/03 04:23:59;;;;;;;4.13;0.90;;;;;;;14.44;69.60;100316.25;5011921;28;20428;-64
2022/01/03 04:26:24;;;;;;;3.80;1.15;;;;;;;14.31;70.09;100315.03;4998226;28;20029;-64
2022/01/03 04:28:50;;;;;;;3.70;1.20;;;;;;;14.31;69.99;100315.91;5015763;28;20081;-64
2022/01/03 04:31:16;;;;;;;4.65;1.70;;;;;;;14.32;69.07;100316.75;5015409;28;20033;-64
2022/01/03 04:33:42;;;;;;;6.20;2.08;;;;;;;14.32;69.52;100306.06;5015425;28;20064;-65
2022/01/03 04:36:09;;;;;;;9.63;1.67;;;;;;;14.38;69.02;100321.88;5016038;28;20461;-64
2022/01/03 04:38:36;;;;;;;5.22;1.15;;;;;;;14.39;69.51;100318.25;5015638;28;20389;-64
2022/01/03 04:41:01;;;;;;;4.50;0.90;;;;;;;14.41;69.18;100327.09;5016311;28;20465;-64
2022/01/03 04:43:27;;;;;;;7.15;2.28;;;;;;;14.44;69.34;100334.97;5015161;28;20036;-64
2022/01/03 04:45:54;;;;;;;9.85;1.30;;;;;;;14.36;69.07;100323.72;5016001;28;20025;-64
2022/01/03 04:48:20;;;;;;;13.77;1.58;;;;;;;14.38;68.74;100327.22;5015182;28;20038;-64
2022/01/03 04:50:46;;;;;;;6.97;1.10;;;;;;;14.39;68.77;100315.56;5011644;28;20393;-64
2022/01/03 04:53:11;;;;;;;5.00;0.90;;;;;;;14.43;68.87;100319.88;5012512;28;20034;-64
2022/01/03 04:55:37;;;;;;;3.72;1.23;;;;;;;14.38;68.76;100316.50;5012826;28;20080;-64
2022/01/03 04:58:02;;;;;;;7.65;1.00;;;;;;;14.35;69.45;100316.63;5012331;28;20444;-64
2022/01/03 05:00:28;;;;;;;5.55;1.13;;;;;;;14.38;69.58;100313.84;5012406;28;20032;-64
2022/01/03 05:02:53;;;;;;;8.93;2.10;;;;;;;14.34;70.12;100314.91;5009913;28;20030;-64
2022/01/03 05:05:19;;;;;;;1.98;0.82;;;;;;;14.34;69.47;100304.19;5010890;28;20050;-64
2022/01/03 05:07:46;;;;;;;4.72;1.52;;;;;;;14.34;69.60;100305.06;5011625;28;20050;-64
2022/01/03 05:10:11;;;;;;;3.22;1.13;;;;;;;14.33;69.16;100307.81;5012483;28;20092;-64
2022/01/03 05:12:36;;;;;;;3.60;1.15;;;;;;;14.13;70.23;100326.47;5012611;28;20022;-64
2022/01/03 05:15:02;;;;;;;6.20;1.08;;;;;;;14.06;70.14;100308.94;5012219;28;20116;-64
2022/01/03 05:17:29;;;;;;;4.65;1.83;;;;;;;14.23;69.12;100301.09;5006825;28;20455;-64
2022/01/03 05:19:55;;;;;;;2.65;0.93;;;;;;;14.21;69.61;100294.91;4992665;28;20034;-64
2022/01/03 05:22:20;;;;;;;7.18;1.23;;;;;;;14.21;68.92;100294.91;4992044;28;20069;-64
2022/01/03 05:24:46;;;;;;;3.03;1.10;;;;;;;14.19;68.91;100302.13;5007470;28;20108;-64
2022/01/03 05:27:12;;;;;;;5.30;1.15;;;;;;;14.26;68.00;100309.00;5011122;28;20091;-64
2022/01/03 05:29:37;;;;;;;6.45;1.70;;;;;;;14.34;68.17;100310.41;5012119;28;20057;-64
2022/01/03 05:32:03;;;;;;;3.40;1.08;;;;;;;14.40;66.41;100309.25;5011931;28;20028;-64
2022/01/03 05:34:28;;;;;;;1.20;0.73;;;;;;;14.41;65.16;100308.34;5011446;28;20607;-64
2022/01/03 05:36:54;;;;;;;3.75;1.10;;;;;;;14.52;65.62;100301.59;5011393;28;20032;-64
2022/01/03 05:39:19;;;;;;;1.75;0.80;;;;;;;14.56;65.83;100309.47;5011489;28;20022;-64
2022/01/03 05:41:45;;;;;;;2.10;0.50;;;;;;;14.51;66.03;100313.22;5011721;28;20543;-64
2022/01/03 05:44:10;;;;;;;7.85;1.40;;;;;;;14.48;65.83;100313.34;5011544;28;20083;-64
2022/01/03 05:46:36;;;;;;;7.78;1.00;;;;;;;14.53;66.47;100316.69;5011814;28;20076;-64
2022/01/03 05:49:01;;;;;;;4.40;1.17;;;;;;;14.47;66.02;100318.78;5007571;28;20394;-64
2022/01/03 05:51:27;;;;;;;3.33;0.70;;;;;;;14.46;65.98;100304.50;5011569;28;20481;-64
2022/01/03 05:53:53;;;;;;;5.43;1.10;;;;;;;14.45;65.84;100313.50;5011615;28;20056;-64
2022/01/03 05:56:19;;;;;;;3.85;1.05;;;;;;;14.47;66.34;100316.97;4992870;28;20061;-64
2022/01/03 05:58:45;;;;;;;3.83;1.10;;;;;;;14.50;65.61;100303.47;5011112;28;20033;-64
2022/01/03 06:01:11;;;;;;;3.20;1.17;;;;;;;14.60;65.87;100311.94;5011163;28;20029;-64
2022/01/03 06:03:39;;;;;;;3.17;0.90;;;;;;;14.65;65.11;100314.41;5011197;28;20076;-64
2022/01/03 06:06:18;;;;;;;5.05;1.15;;;;;;;14.51;66.08;100280.25;5010546;28;20049;-64
2022/01/03 06:08:43;;;;;;;6.57;1.02;;;;;;;14.41;67.49;100316.38;5011127;28;20037;-64
2022/01/03 06:11:09;;;;;;;4.53;0.90;;;;;;;14.59;66.82;100320.03;5010423;28;20037;-64
2022/01/03 06:13:34;;;;;;;3.05;0.90;;;;;;;14.62;66.77;100310.06;5010998;28;20080;-64
2022/01/03 06:16:00;;;;;;;3.95;0.65;;;;;;;14.58;67.76;100313.81;5011219;28;20033;-64
2022/01/03 06:18:25;;;;;;;4.30;1.67;;;;;;;14.55;69.65;100300.56;5010040;28;20029;-64
2022/01/03 06:20:51;;;;;;;5.68;0.95;;;;;;;14.45;69.76;100296.56;5010975;28;20112;-64
2022/01/03 06:23:18;;;;;;;5.90;1.15;;;;;;;14.29;69.61;100279.44;5010679;28;20478;-64
2022/01/03 06:25:44;;;;;;;6.55;1.25;;;;;;;14.35;68.60;100289.84;5010776;28;20546;-64
2022/01/03 06:28:10;;;;;;;6.65;1.40;;;;;;;14.45;67.96;100280.50;5010560;28;20029;-64
2022/01/03 06:30:41;;;;;;;4.72;1.48;;;;;;;14.43;68.09;100274.38;5006271;28;20044;-64
2022/01/03 06:33:09;;;;;;;6.07;3.28;;;;;;;14.42;68.06;100277.97;5003757;28;20109;-63
2022/01/03 06:35:35;;;;;;;9.52;1.90;;;;;;;14.36;70.30;100281.75;5010638;28;20029;-63
2022/01/03 06:38:02;;;;;;;5.88;1.23;;;;;;;14.32;70.16;100288.19;5010061;28;20029;-64
2022/01/03 06:40:28;;;;;;;7.13;1.20;;;;;;;14.26;71.09;100285.81;5010613;28;20030;-63
2022/01/03 06:42:54;;;;;;;4.85;0.98;;;;;;;14.25;70.99;100275.13;5010575;28;20025;-63
2022/01/03 06:45:20;;;;;;;3.72;0.98;;;;;;;14.28;70.17;100280.38;5010229;28;20057;-63
2022/01/03 06:47:46;;;;;;;11.73;1.20;;;;;;;14.29;71.50;100268.72;5010215;28;20060;-63
2022/01/03 06:50:11;;;;;;;7.80;1.35;;;;;;;14.26;71.46;100263.53;5009988;28;20436;-63
2022/01/03 06:52:37;;;;;;;6.35;1.50;;;;;;;14.22;70.66;100267.22;5010695;28;20026;-63
2022/01/03 06:55:04;;;;;;;5.55;1.25;;;;;;;14.24;70.29;100262.69;5009030;28;20088;-63
2022/01/03 06:57:31;;;;;;;4.03;1.08;;;;;;;14.28;70.16;100256.31;5005984;28;20022;-63
2022/01/03 06:59:56;;;;;;;5.70;1.48;;;;;;;14.30;70.21;100254.41;5010426;28;20057;-63
2022/01/03 07:02:22;;;;;;;7.63;2.08;;;;;;;13.93;71.70;100259.56;5010032;28;20431;-63
2022/01/03 07:04:48;;;;;;;6.20;1.83;;;;;;;14.04;72.57;100259.97;5009436;28;20026;-63
2022/01/03 07:07:14;;;;;;;6.22;1.60;;;;;;;13.88;73.50;100261.56;5009485;28;20046;-64
2022/01/03 07:09:39;;;;;;;7.43;1.58;;;;;;;13.82;75.17;100272.53;5009648;28;20026;-64
2022/01/03 07:12:06;;;;;;;13.60;1.65;;;;;;;13.73;75.80;100283.59;5009140;28;20037;-64
2022/01/03 07:19:56;;;;;;;5.10;2.03;;;;;;;13.70;76.23;100281.06;5010436;28;20133;-64
2022/01/03 07:22:22;;;;;;;5.15;1.92;;;;;;;13.62;76.14;100280.50;5009724;28;20033;-64
2022/01/03 07:24:48;;;;;;;6.43;1.98;;;;;;;13.66;76.73;100277.63;5009363;28;20028;-64
2022/01/03 07:27:14;;;;;;;4.88;1.45;;;;;;;13.64;76.35;100281.31;5009145;28;20029;-64
2022/01/03 07:29:40;;;;;;;5.82;2.00;;;;;;;13.60;76.83;100283.25;5009768;28;20030;-64
2022/01/03 07:32:07;;;;;;;4.88;2.50;;;;;;;13.53;76.22;100278.19;5008826;28;20037;-64
2022/01/03 07:34:33;;;;;;;6.53;1.60;;;;;;;13.61;76.28;100274.28;4990541;28;20041;-64
2022/01/03 07:36:58;;;;;;;5.50;1.90;;;;;;;13.60;76.16;100261.84;4989739;28;20038;-64
2022/01/03 07:39:24;;;;;;;9.50;2.03;;;;;;;13.59;76.35;100264.59;4990148;28;20383;-64
2022/01/03 07:41:50;;;;;;;4.47;2.00;;;;;;;13.61;76.65;100268.94;4988371;28;20121;-64
2022/01/03 07:44:16;;;;;;;4.95;1.70;;;;;;;13.60;76.05;100269.88;4989922;28;20018;-64
2022/01/03 07:46:41;;;;;;;5.47;1.48;;;;;;;13.57;76.72;100266.44;4994596;28;20034;-64
2022/01/03 07:49:07;;;;;;;6.20;1.25;;;;;;;13.61;77.04;100279.63;5003427;28;20033;-64
2022/01/03 07:51:32;;;;;;;2.45;1.10;;;;;;;13.67;76.80;100278.50;5010147;28;20140;-64
2022/01/03 07:53:58;;;;;;;3.33;1.60;;;;;;;13.60;76.48;100271.66;5010048;28;20034;-64
2022/01/03 07:56:24;;;;;;;5.78;1.92;;;;;;;13.57;76.88;100283.38;5005572;28;20022;-64
2022/01/03 07:58:49;;;;;;;9.35;1.90;;;;;;;13.62;77.54;100280.50;5009377;28;20385;-63
2022/01/03 08:01:15;;;;;;;5.07;1.27;;;;;;;13.60;75.92;100287.72;5009690;28;20400;-64
2022/01/03 08:03:40;;;;;;;11.55;2.00;;;;;;;13.54;77.11;100277.28;5008997;28;20426;-64
2022/01/03 08:06:08;;;;;;;5.70;1.10;;;;;;;13.48;76.59;100293.53;5008962;28;20295;-64
2022/01/03 08:08:33;;;;;;;8.18;1.90;;;;;;;13.49;76.53;100297.97;5009261;28;20026;-64
2022/01/03 08:10:59;;;;;;;4.93;1.52;;;;;;;13.53;77.04;100296.91;5009031;28;20033;-64
2022/01/03 08:13:24;;;;;;;5.72;1.63;;;;;;;13.49;76.08;100292.63;5009404;28;20109;-64
2022/01/03 08:15:50;;;;;;;10.45;1.85;;;;;;;13.45;76.28;100297.22;5009262;28;20109;-64
2022/01/03 08:18:15;;;;;;;6.85;1.80;;;;;;;13.49;76.75;100295.28;5009137;28;20026;-64
2022/01/03 08:20:41;;;;;;;5.10;1.63;;;;;;;13.48;76.21;100289.06;5009521;28;20036;-64
2022/01/03 08:23:06;;;;;;;3.45;1.02;;;;;;;13.46;76.29;100303.44;5009627;28;20026;-64
2022/01/03 08:25:37;;;;;;;6.45;2.33;;;;;;;13.48;75.47;100282.84;5012355;28;20486;-64
2022/01/03 08:28:04;;;;;;;6.60;2.20;;;;;;;13.51;75.52;100283.59;5013093;28;20029;-64
2022/01/03 08:30:30;;;;;;;5.10;1.50;;;;;;;13.56;75.53;100283.44;5013386;28;20117;-64
2022/01/03 08:32:55;;;;;;;6.82;2.30;;;;;;;13.59;75.55;100276.13;5002048;28;20110;-64
2022/01/03 08:35:21;;;;;;;7.60;1.98;;;;;;;13.62;75.53;100284.06;4993078;28;20022;-64
2022/01/03 08:37:46;;;;;;;7.78;1.90;;;;;;;13.70;75.79;100295.31;4993730;28;20049;-64
2022/01/03 08:40:11;;;;;;;3.95;1.27;;;;;;;13.65;74.81;100283.94;4994979;28;20470;-64
2022/01/03 08:42:37;;;;;;;2.55;1.48;;;;;;;13.68;75.06;100288.25;4992665;28;20298;-64
2022/01/03 08:45:04;;;;;;;4.30;1.30;;;;;;;13.76;75.29;100280.78;4993639;28;20037;-64
2022/01/03 08:47:29;;;;;;;6.28;1.42;;;;;;;13.83;74.60;100282.28;4992566;28;20397;-64
2022/01/03 08:49:55;;;;;;;2.42;1.23;;;;;;;13.83;74.37;100276.94;4993461;28;20076;-64
2022/01/03 08:52:21;;;;;;;3.08;1.35;;;;;;;13.84;75.06;100284.91;4992568;28;20121;-64
2022/01/03 08:54:47;;;;;;;5.28;1.25;;;;;;;13.87;74.42;100284.75;4993289;28;20022;-64
2022/01/03 08:57:12;;;;;;;9.40;1.38;;;;;;;13.92;73.84;100276.56;4992622;28;20449;-64
2022/01/03 08:59:38;;;;;;;4.35;1.98;;;;;;;13.94;73.47;100280.03;4991735;28;20041;-64
2022/01/03 09:02:04;;;;;;;4.93;1.10;;;;;;;13.95;73.05;100276.44;4993919;28;20509;-64
2022/01/03 09:04:29;;;;;;;4.47;1.25;;;;;;;13.98;73.59;100279.84;4994462;28;20023;-64
2022/01/03 09:06:57;;;;;;;5.82;1.42;;;;;;;13.97;72.67;100274.56;4992238;28;20054;-64
2022/01/03 09:09:23;;;;;;;3.78;1.13;;;;;;;13.98;72.99;100268.28;4992661;28;20022;-64
2022/01/03 09:11:48;;;;;;;5.55;1.23;;;;;;;14.04;73.32;100268.88;4992463;28;20083;-64
2022/01/03 09:14:14;;;;;;;4.25;0.95;;;;;;;14.10;73.17;100265.09;4992330;28;20072;-64
2022/01/03 09:16:40;;;;;;;5.72;1.85;;;;;;;14.14;72.14;100261.34;4992214;28;20053;-64
2022/01/03 09:19:05;;;;;;;3.58;1.33;;;;;;;14.15;72.48;100261.25;5008890;28;20037;-64
2022/01/03 09:21:31;;;;;;;4.32;1.08;;;;;;;14.15;72.98;100255.06;5012376;28;20107;-64
2022/01/03 09:24:18;;;;;;;5.75;1.00;;;;;;;14.21;73.08;100260.13;5011725;28;20022;-64
2022/01/03 09:29:25;;;;;;;3.53;1.23;;;;;;;14.15;74.07;100255.06;5012009;28;20413;-64
2022/01/03 09:31:51;;;;;;;2.70;1.15;;;;;;;14.20;73.46;100263.75;5009531;28;20071;-64
2022/01/03 09:34:16;;;;;;;5.40;1.20;;;;;;;14.14;74.19;100261.34;4992088;28;20109;-64
2022/01/03 09:36:42;;;;;;;3.60;0.90;;;;;;;14.12;74.19;100260.53;4991557;28;20030;-64
2022/01/03 09:39:07;;;;;;;2.60;1.10;;;;;;;14.17;74.63;100259.41;4973960;28;20491;-64
2022/01/03 09:41:34;;;;;;;4.70;1.40;;;;;;;14.23;73.84;100259.13;4997827;28;20022;-64
2022/01/03 09:44:04;;;;;;;2.92;1.00;;;;;;;14.14;73.89;100242.59;5011539;28;20080;-64
2022/01/03 09:46:36;;;;;;;4.80;1.13;;;;;;;14.25;74.03;100251.94;5011593;28;20030;-64
2022/01/03 09:49:03;;;;;;;5.00;1.40;;;;;;;14.27;74.81;100246.50;5011150;28;20569;-64
2022/01/03 09:51:31;;;;;;;5.13;1.63;;;;;;;14.20;74.82;100253.91;5011609;28;20441;-64
2022/01/03 09:54:02;;;;;;;6.13;1.98;;;;;;;14.24;73.65;100254.66;5010976;28;20018;-64
2022/01/03 09:56:33;;;;;;;6.78;1.63;;;;;;;14.16;74.58;100251.44;5011599;28;20026;-64
2022/01/03 09:59:00;;;;;;;16.00;6.13;;;;;;;14.28;73.69;100257.16;4992922;28;20105;-65
2022/01/03 10:01:27;;;;;;;6.80;1.75;;;;;;;14.21;74.24;100266.38;5010988;28;20026;-65
2022/01/03 10:03:52;;;;;;;7.65;2.85;;;;;;;14.32;74.04;100264.13;5011041;28;20396;-65
2022/01/03 10:06:19;;;;;;;8.13;3.17;;;;;;;14.29;73.72;100252.69;4999674;28;20046;-65
2022/01/03 10:08:46;;;;;;;9.48;4.25;;;;;;;14.38;74.07;100257.63;4990809;28;20038;-65
2022/01/03 10:11:12;;;;;;;10.80;3.60;;;;;;;14.40;74.03;100269.13;4991514;28;20030;-65
2022/01/03 10:13:38;;;;;;;26.38;10.50;;;;;;;14.43;74.64;100256.47;4991538;28;20037;-65
2022/01/03 10:16:05;;;;;;;14.93;4.97;;;;;;;14.42;75.25;100267.25;4991233;28;20038;-65
2022/01/03 10:18:31;;;;;;;29.33;9.27;;;;;;;14.45;75.98;100251.06;5003065;28;20436;-65
2022/01/03 10:20:57;;;;;;;10.80;4.55;;;;;;;14.27;76.97;100254.53;5011313;28;20113;-65
2022/01/03 10:23:23;;;;;;;5.95;2.65;;;;;;;14.52;77.00;100252.53;5010257;28;20486;-65
2022/01/03 10:25:49;;;;;;;6.45;2.33;;;;;;;14.68;76.84;100256.25;5010992;28;20485;-65
2022/01/03 10:28:23;;;;;;;9.45;3.00;;;;;;;14.73;76.35;100245.34;5010323;28;20485;-65
2022/01/03 10:30:49;;;;;;;7.93;2.80;;;;;;;14.71;76.83;100247.22;4996888;28;20398;-66
2022/01/03 10:33:17;;;;;;;8.65;2.28;;;;;;;14.69;77.10;100252.66;4990225;28;20069;-64
2022/01/03 10:35:49;;;;;;;5.47;2.22;;;;;;;14.64;76.83;100248.44;4989156;28;20030;-64
2022/01/03 10:38:36;;;;;;;6.65;2.40;;;;;;;14.62;76.28;100248.50;4990721;28;20026;-64
2022/01/03 10:41:15;;;;;;;7.72;1.65;;;;;;;14.57;77.16;100234.44;4990738;28;20096;-64
2022/01/03 10:43:43;;;;;;;4.85;1.60;;;;;;;14.55;77.59;100233.66;4991500;28;20018;-64
2022/01/03 10:46:26;;;;;;;9.13;2.75;;;;;;;14.49;77.73;100234.81;4990406;28;20088;-64
2022/01/03 10:49:09;;;;;;;19.88;5.53;;;;;;;14.49;77.84;100236.59;4989940;28;20026;-64
2022/01/03 10:51:35;;;;;;;12.05;5.40;;;;;;;14.41;77.51;100225.38;4990615;28;20095;-64
2022/01/03 10:54:01;;;;;;;10.77;2.75;;;;;;;14.42;77.63;100227.09;4990468;28;20111;-64
2022/01/03 10:56:29;;;;;;;6.70;2.28;;;;;;;14.45;78.79;100237.66;4990833;28;20042;-64
2022/01/03 10:58:59;;;;;;;10.27;2.53;;;;;;;14.47;77.83;100238.47;4990168;28;20092;-64
2022/01/03 11:01:31;;;;;;;5.70;2.97;;;;;;;14.42;79.14;100240.50;4990605;28;20022;-64
2022/01/03 11:03:59;;;;;;;4.25;1.50;;;;;;;14.42;78.59;100237.81;4990639;28;20030;-64
2022/01/03 11:11:43;;;;;;;8.90;1.85;;;;;;;14.47;73.83;100219.75;4990211;28;20069;-64
2022/01/03 11:14:10;;;;;;;8.20;2.35;;;;;;;14.56;72.94;100222.03;4990281;28;20529;-64
2022/01/03 11:16:42;;;;;;;4.60;1.88;;;;;;;14.60;72.50;100218.25;4990630;28;20471;-64
2022/01/03 11:19:08;;;;;;;7.07;1.25;;;;;;;14.62;71.84;100213.69;5007347;28;20025;-64
2022/01/03 11:21:44;;;;;;;3.67;1.30;;;;;;;14.58;71.47;100206.72;5010037;28;20028;-64
2022/01/03 11:24:14;;;;;;;2.83;0.80;;;;;;;14.63;70.93;100198.50;5010049;28;20038;-64
2022/01/03 11:26:48;;;;;;;3.95;1.83;;;;;;;14.74;70.67;100205.13;5009300;28;20109;-64
2022/01/03 11:29:14;;;;;;;3.90;1.33;;;;;;;14.68;69.45;100193.81;5008748;28;20025;-64
2022/01/03 11:31:40;;;;;;;5.50;1.55;;;;;;;14.70;71.00;100184.75;5009506;28;20112;-64
2022/01/03 11:34:11;;;;;;;4.53;1.48;;;;;;;14.72;71.17;100182.88;4990731;28;20026;-64
2022/01/03 11:36:39;;;;;;;5.57;1.80;;;;;;;14.71;71.04;100178.44;4992261;28;20049;-64
2022/01/03 11:39:11;;;;;;;10.52;2.47;;;;;;;14.70;71.97;100165.13;5009079;28;20061;-64
2022/01/03 11:41:41;;;;;;;6.20;1.95;;;;;;;14.77;73.04;100158.56;5006507;28;20053;-64